Time;durP1;ratioP1;P1;durP2;ratioP2;P2;SDS_P1;SDS_P2;PMS_P1;PMS_P2;Temp;Humidity;BMP_temperature;BMP_pressure;BME280_temperature;BME280_humidity;BME280_pressure;Samples;Min_cycle;Max_cycle;Signal;HPM_P1;HPM_P2
2023/01/26 00:01:23;;;;;;;20.82;10.05;;;;;;;-1.80;78.24;101662.97;1735031;82;21503;-66
2023/01/26 00:03:52;;;;;;;23.90;10.03;;;;;;;-1.81;78.33;101666.61;1735078;83;21014;-65
2023/01/26 00:06:22;;;;;;;21.27;10.08;;;;;;;-1.79;78.38;101666.53;1735113;83;21152;-67
2023/01/26 00:08:54;;;;;;;20.43;9.78;;;;;;;-1.81;78.32;101664.41;1735189;83;21038;-66
2023/01/26 00:11:29;;;;;;;23.60;10.28;;;;;;;-1.82;78.40;101673.42;1734821;83;21066;-66
2023/01/26 00:14:00;;;;;;;20.43;10.70;;;;;;;-1.81;78.51;101661.72;1729269;82;21130;-66
2023/01/26 00:16:29;;;;;;;23.10;11.50;;;;;;;-1.77;78.54;101665.48;1759772;81;21419;-66
2023/01/26 00:19:00;;;;;;;22.60;10.55;;;;;;;-1.78;78.52;101658.38;1759700;80;21512;-66
2023/01/26 00:21:29;;;;;;;25.25;10.70;;;;;;;-1.75;78.58;101658.20;1744881;81;21071;-64
2023/01/26 00:24:00;;;;;;;23.05;11.85;;;;;;;-1.73;78.53;101650.92;1759645;80;21019;-66
2023/01/26 00:26:30;;;;;;;22.62;10.78;;;;;;;-1.73;78.44;101650.05;1759796;81;21458;-65
2023/01/26 00:29:00;;;;;;;20.80;10.50;;;;;;;-1.74;78.47;101645.64;1759679;81;21067;-65
2023/01/26 00:31:30;;;;;;;28.23;12.03;;;;;;;-1.71;78.57;101650.83;1759906;81;21093;-65
2023/01/26 00:34:00;;;;;;;24.85;10.85;;;;;;;-1.71;78.55;101643.64;1759907;81;21447;-66
2023/01/26 00:36:30;;;;;;;25.90;11.50;;;;;;;-1.69;78.54;101636.35;1760077;81;21015;-66
2023/01/26 00:39:01;;;;;;;25.10;11.60;;;;;;;-1.69;78.43;101636.35;1759759;81;21079;-66
2023/01/26 00:44:20;;;;;;;25.85;11.95;;;;;;;-1.68;78.42;101639.91;1759847;81;21055;-66
2023/01/26 00:46:50;;;;;;;25.10;11.90;;;;;;;-1.65;78.40;101639.25;1759908;80;20999;-66
2023/01/26 00:49:19;;;;;;;26.95;11.38;;;;;;;-1.64;78.41;101630.23;1759915;81;20972;-65
2023/01/26 00:51:48;;;;;;;27.75;12.23;;;;;;;-1.64;78.39;101631.58;1738616;81;21047;-65
2023/01/26 00:54:18;;;;;;;28.25;12.55;;;;;;;-1.64;78.40;101624.86;1738719;81;21050;-66
2023/01/26 00:56:49;;;;;;;29.00;12.53;;;;;;;-1.62;78.40;101632.35;1759940;81;21084;-65
2023/01/26 00:59:18;;;;;;;29.98;13.18;;;;;;;-1.62;78.31;101625.64;1759745;81;20999;-66
2023/01/26 01:01:48;;;;;;;28.55;12.90;;;;;;;-1.67;78.19;101627.72;1738584;81;21062;-66
2023/01/26 01:04:20;;;;;;;26.62;11.95;;;;;;;-1.78;78.29;101623.45;1760033;81;21016;-66
2023/01/26 01:06:50;;;;;;;27.93;12.50;;;;;;;-1.79;78.60;101621.72;1738847;81;20999;-66
2023/01/26 01:09:21;;;;;;;29.35;12.73;;;;;;;-1.76;78.64;101624.70;1760114;81;21046;-67
2023/01/26 01:11:52;;;;;;;30.03;13.13;;;;;;;-1.75;78.68;101620.59;1760040;80;21023;-65
2023/01/26 01:14:21;;;;;;;25.70;12.03;;;;;;;-1.74;78.75;101617.42;1760520;81;21693;-64
2023/01/26 01:16:52;;;;;;;28.50;12.50;;;;;;;-1.72;78.78;101617.72;1756019;81;21459;-64
2023/01/26 01:19:22;;;;;;;29.25;13.08;;;;;;;-1.72;78.66;101613.69;1756015;82;21043;-64
2023/01/26 01:21:53;;;;;;;28.00;12.78;;;;;;;-1.74;78.75;101607.55;1741184;82;21110;-64
2023/01/26 01:24:24;;;;;;;28.98;13.10;;;;;;;-1.73;78.85;101607.93;1740612;82;21047;-64
2023/01/26 01:26:54;;;;;;;29.35;13.18;;;;;;;-1.72;78.89;101601.60;1755862;80;21087;-64
2023/01/26 01:29:24;;;;;;;32.38;13.68;;;;;;;-1.70;78.86;101595.66;1756037;81;21059;-64
2023/01/26 01:31:53;;;;;;;31.37;13.43;;;;;;;-1.68;78.92;101595.57;1755760;81;21460;-64
2023/01/26 01:34:26;;;;;;;33.33;14.30;;;;;;;-1.66;78.94;101585.13;1755932;81;21455;-64
2023/01/26 01:36:57;;;;;;;30.95;13.72;;;;;;;-1.63;78.92;101587.62;1755805;82;21427;-65
2023/01/26 01:39:27;;;;;;;28.98;13.20;;;;;;;-1.61;78.86;101582.16;1755990;82;20984;-64
2023/01/26 01:41:56;;;;;;;33.02;14.30;;;;;;;-1.60;78.81;101579.38;1756052;81;21012;-65
2023/01/26 01:44:27;;;;;;;34.27;13.62;;;;;;;-1.61;78.71;101579.00;1707956;83;21024;-65
2023/01/26 01:47:02;;;;;;;27.52;13.68;;;;;;;-1.62;78.74;101572.37;1707988;84;21062;-65
2023/01/26 01:49:42;;;;;;;;;;;;;;;-1.63;78.60;101578.70;1710299;84;21107;-62
2023/01/26 01:52:25;;;;;;;32.05;13.35;;;;;;;-1.66;78.69;101573.51;1708012;84;20263;-63
2023/01/26 01:55:06;;;;;;;32.75;14.10;;;;;;;-1.63;78.82;101561.23;1708081;84;21031;-63
2023/01/26 01:57:50;;;;;;;37.30;14.80;;;;;;;-1.59;78.78;101568.16;1707972;84;21048;-62
2023/01/26 02:00:22;;;;;;;37.20;14.27;;;;;;;-1.56;78.75;101562.59;1625092;88;21091;-62
2023/01/26 02:03:18;;;;;;;34.60;14.87;;;;;;;-1.55;78.61;101568.36;1657832;85;21071;-62
2023/01/26 02:05:53;;;;;;;33.67;14.73;;;;;;;-1.53;78.65;101557.52;1658625;85;21032;-63
2023/01/26 02:08:28;;;;;;;35.17;14.28;;;;;;;-1.49;78.60;101557.24;1679434;85;21075;-63
2023/01/26 02:11:00;;;;;;;35.70;14.93;;;;;;;-1.45;78.55;101560.61;1599811;90;21070;-62
2023/01/26 02:13:31;;;;;;;32.35;14.90;;;;;;;-1.44;78.51;101552.94;1561749;89;21192;-62
2023/01/26 02:16:02;;;;;;;35.55;15.18;;;;;;;-1.42;78.42;101551.88;1585696;89;21526;-62
2023/01/26 02:18:32;;;;;;;32.42;15.20;;;;;;;-1.43;78.24;101547.94;1647683;84;21059;-61
2023/01/26 02:21:05;;;;;;;32.58;14.38;;;;;;;-1.46;78.25;101552.16;1594603;90;21097;-63
2023/01/26 02:23:56;;;;;;;36.30;15.75;;;;;;;-1.46;78.33;101537.38;1574684;90;21143;-62
2023/01/26 02:26:29;;;;;;;33.88;14.70;;;;;;;-1.45;78.31;101537.28;1594932;88;21124;-62
2023/01/26 02:28:59;;;;;;;34.70;15.45;;;;;;;-1.44;78.31;101526.05;1574318;90;21480;-64
2023/01/26 02:31:29;;;;;;;36.95;16.35;;;;;;;-1.44;78.18;101522.02;1573261;89;21088;-63
2023/01/26 02:33:59;;;;;;;37.15;16.15;;;;;;;-1.45;78.21;101517.60;1594942;88;21136;-62
2023/01/26 02:36:31;;;;;;;37.85;16.70;;;;;;;-1.40;78.27;101523.56;1640489;87;21112;-62
2023/01/26 02:39:46;;;;;;;39.42;16.23;;;;;;;-1.38;78.11;101521.17;1602955;87;21116;-62
2023/01/26 02:45:14;;;;;;;38.78;16.27;;;;;;;-1.43;77.98;101519.72;1678138;81;21027;-63
2023/01/26 02:47:45;;;;;;;42.53;17.27;;;;;;;-1.44;77.98;101509.92;1748564;81;21059;-62
2023/01/26 02:50:17;;;;;;;45.40;18.75;;;;;;;-1.46;78.06;101511.84;1708650;83;21035;-62
2023/01/26 02:52:47;;;;;;;44.25;18.00;;;;;;;-1.44;78.11;101508.58;1765707;81;21308;-62
2023/01/26 02:55:24;;;;;;;41.50;17.77;;;;;;;-1.43;78.13;101501.77;1657780;86;21141;-63
2023/01/26 02:58:01;;;;;;;39.65;17.48;;;;;;;-1.41;78.18;101498.51;1658920;86;21082;-63
2023/01/26 03:00:40;;;;;;;39.65;16.60;;;;;;;-1.39;78.20;101499.28;1658548;86;21083;-63
2023/01/26 03:03:21;;;;;;;42.98;18.32;;;;;;;-1.40;78.08;101495.34;1658551;86;21066;-62
2023/01/26 03:05:52;;;;;;;39.33;16.97;;;;;;;-1.42;78.12;101491.88;1658578;86;21090;-61
2023/01/26 03:08:22;;;;;;;40.15;17.57;;;;;;;-1.45;78.09;101494.76;1636627;86;21059;-61
2023/01/26 03:10:52;;;;;;;44.70;18.45;;;;;;;-1.47;78.18;101493.98;1658738;86;21130;-61
2023/01/26 03:13:22;;;;;;;40.00;17.62;;;;;;;-1.48;78.17;101497.16;1708598;81;21019;-63
2023/01/26 03:15:53;;;;;;;46.45;17.32;;;;;;;-1.48;78.23;101481.50;1755901;82;21014;-61
2023/01/26 13:21:06;;;;;;;19.87;7.40;;;;;;;0.03;75.99;101238.27;1807931;75;25257;31
2023/01/26 13:23:44;;;;;;;28.00;10.43;;;;;;;-0.03;75.95;101238.19;1636989;86;21208;-59
2023/01/26 13:26:37;;;;;;;26.97;10.28;;;;;;;0.02;75.87;101230.30;1642073;87;21142;-62
2023/01/26 13:29:31;;;;;;;29.52;10.70;;;;;;;0.03;75.90;101234.23;1627520;87;21657;-62
2023/01/26 13:32:16;;;;;;;24.37;10.28;;;;;;;0.08;76.07;101241.98;1627943;87;21585;-62
2023/01/26 13:34:57;;;;;;;26.70;10.88;;;;;;;0.12;75.84;101243.48;1627088;88;21197;-60
2023/01/26 13:37:37;;;;;;;25.43;9.58;;;;;;;0.14;75.86;101245.09;1577083;89;21666;-61
2023/01/26 13:40:28;;;;;;;22.52;9.23;;;;;;;0.17;75.62;101249.41;1640354;86;21244;-60
2023/01/26 13:43:18;;;;;;;25.82;10.40;;;;;;;0.14;75.42;101241.05;1642432;87;21245;-60
2023/01/26 13:46:24;;;;;;;28.92;9.78;;;;;;;0.15;75.63;101240.57;1614813;87;21257;-62
2023/01/26 13:48:55;;;;;;;24.82;11.12;;;;;;;0.15;75.70;101242.77;1641767;87;21589;-61
2023/01/26 13:51:31;;;;;;;25.60;11.48;;;;;;;0.16;75.86;101240.45;1641925;87;21252;-62
2023/01/26 13:54:13;;;;;;;25.25;10.03;;;;;;;0.18;75.90;101239.00;1641838;86;21567;-62
2023/01/26 13:57:06;;;;;;;22.30;9.88;;;;;;;0.17;75.94;101234.09;1636801;86;21179;-61
2023/01/26 13:59:51;;;;;;;26.48;10.78;;;;;;;0.18;75.97;101241.20;1636761;87;21168;-60
2023/01/26 14:02:27;;;;;;;27.85;11.18;;;;;;;0.21;76.12;101241.47;1636858;86;21212;-60
2023/01/26 14:04:58;;;;;;;24.12;10.58;;;;;;;0.22;76.17;101245.89;1636819;87;21749;-61
2023/01/26 14:07:31;;;;;;;21.35;9.65;;;;;;;0.21;76.60;101237.43;1685680;84;21138;-62
2023/01/26 14:10:03;;;;;;;27.40;11.05;;;;;;;0.21;76.67;101241.47;1695939;84;21619;-62
2023/01/26 14:12:43;;;;;;;26.37;11.30;;;;;;;0.19;76.63;101235.33;1696294;83;21178;-60
2023/01/26 14:15:26;;;;;;;28.87;11.22;;;;;;;0.17;76.72;101234.09;1695956;83;21127;-61
2023/01/26 14:18:02;;;;;;;26.40;11.40;;;;;;;0.14;76.96;101234.31;1696047;84;21538;-61
2023/01/26 14:20:38;;;;;;;31.52;14.10;;;;;;;0.13;77.23;101234.42;1695878;84;21605;-61
2023/01/26 14:23:18;;;;;;;27.07;12.05;;;;;;;0.11;77.57;101229.15;1668751;85;21157;-62
2023/01/26 14:25:56;;;;;;;28.60;12.13;;;;;;;0.13;77.88;101232.59;1668914;86;21654;-61
2023/01/26 14:28:34;;;;;;;27.65;11.48;;;;;;;0.12;77.99;101220.58;1668892;86;21241;-60
2023/01/26 14:31:22;;;;;;;31.02;12.23;;;;;;;0.09;78.16;101216.27;1668819;86;21659;-61
2023/01/26 14:33:56;;;;;;;26.85;11.90;;;;;;;0.07;78.39;101214.17;1655409;87;21159;-61
2023/01/26 14:36:30;;;;;;;33.08;12.58;;;;;;;0.10;78.60;101218.48;1658749;86;21156;-61
2023/01/26 14:39:01;;;;;;;32.10;14.18;;;;;;;0.09;78.71;101214.92;1655419;87;21175;-62
2023/01/26 14:41:33;;;;;;;36.10;14.25;;;;;;;0.08;78.91;101221.77;1631755;87;21181;-61
2023/01/26 14:44:04;;;;;;;38.00;15.08;;;;;;;0.08;79.00;101215.90;1610770;89;21121;-61
2023/01/26 14:47:01;;;;;;;33.00;14.30;;;;;;;0.07;79.14;101222.26;1610966;88;21134;-63
2023/01/26 14:49:53;;;;;;;36.90;14.78;;;;;;;0.08;79.28;101215.90;1610513;88;21161;-60
2023/01/26 14:52:38;;;;;;;36.25;15.35;;;;;;;0.07;79.40;101216.01;1672830;84;21189;-62
2023/01/26 14:55:15;;;;;;;38.38;15.72;;;;;;;0.07;79.58;101200.70;1649171;86;21624;-60
2023/01/26 14:57:45;;;;;;;45.70;16.57;;;;;;;0.06;79.68;101205.72;1665538;86;21201;-61
2023/01/26 15:00:25;;;;;;;41.23;17.07;;;;;;;0.05;79.78;101214.77;1663681;86;21265;-61
2023/01/26 15:03:01;;;;;;;38.95;15.68;;;;;;;0.04;79.93;101207.66;1666825;84;21198;-61
2023/01/26 15:05:36;;;;;;;37.63;15.43;;;;;;;0.04;80.04;101205.45;1663666;86;21142;-60
2023/01/26 15:08:22;;;;;;;41.68;16.77;;;;;;;0.02;80.29;101202.01;1666836;86;21202;-61
2023/01/26 15:13:54;;;;;;;35.25;14.98;;;;;;;0.02;80.40;101199.31;1663775;86;21174;-61
2023/01/26 15:16:25;;;;;;;47.13;17.35;;;;;;;0.04;80.45;101202.27;1663800;86;21162;-61
2023/01/26 15:19:00;;;;;;;47.50;16.65;;;;;;;0.03;80.47;101199.20;1663344;85;21745;-60
2023/01/26 15:21:42;;;;;;;42.98;18.20;;;;;;;0.04;80.54;101192.84;1663570;86;21596;-62
2023/01/26 15:24:14;;;;;;;39.60;16.75;;;;;;;0.06;80.55;101184.16;1617456;87;21138;-61
2023/01/26 15:26:43;;;;;;;43.52;15.75;;;;;;;0.06;80.53;101186.86;1638646;86;21305;-63
2023/01/26 15:29:25;;;;;;;49.80;18.75;;;;;;;0.06;80.99;101190.90;1643076;87;21206;-60
2023/01/26 15:31:56;;;;;;;43.28;17.10;;;;;;;0.08;80.96;101207.81;1649619;85;21153;-61
2023/01/26 15:34:33;;;;;;;41.00;16.02;;;;;;;0.07;80.88;101209.27;1688308;84;21157;-61
2023/01/26 15:37:30;;;;;;;32.93;14.38;;;;;;;0.08;80.88;101202.91;1715627;83;21157;-61
2023/01/26 15:40:00;;;;;;;38.28;15.80;;;;;;;0.07;80.81;101203.40;1687957;84;21157;-62
2023/01/26 15:42:32;;;;;;;36.45;14.98;;;;;;;0.09;80.96;101201.45;1650994;86;21150;-61
2023/01/26 15:45:02;;;;;;;33.80;13.72;;;;;;;0.10;80.87;101205.88;1651274;86;21596;-62
2023/01/26 15:47:32;;;;;;;38.02;14.18;;;;;;;0.09;80.61;101197.41;1651195;87;21237;-60
2023/01/26 15:50:02;;;;;;;35.05;14.98;;;;;;;0.10;81.11;101202.31;1651009;87;21174;-62
2023/01/26 15:52:32;;;;;;;34.38;13.20;;;;;;;0.11;80.95;101202.69;1632737;87;21612;-61
2023/01/26 15:55:06;;;;;;;37.73;14.25;;;;;;;0.10;80.80;101203.66;1651027;87;21121;-61
2023/01/26 15:57:36;;;;;;;38.85;13.70;;;;;;;0.10;80.79;101200.48;1651030;87;21149;-62
2023/01/26 16:00:11;;;;;;;35.05;14.28;;;;;;;0.11;80.68;101198.16;1650896;87;21702;-61
2023/01/26 16:02:43;;;;;;;35.87;14.30;;;;;;;0.09;80.56;101193.37;1651184;87;21182;-62
2023/01/26 16:05:20;;;;;;;37.75;13.62;;;;;;;0.08;80.61;101195.69;1651007;86;21122;-62
2023/01/26 16:07:49;;;;;;;35.25;13.72;;;;;;;0.10;80.92;101203.17;1651230;86;21150;-62
2023/01/26 16:10:23;;;;;;;32.30;13.25;;;;;;;0.12;80.70;101199.02;1651225;87;21142;-61
2023/01/26 16:12:52;;;;;;;33.98;13.85;;;;;;;0.10;80.46;101192.40;1662112;86;21137;-62
2023/01/26 16:15:38;;;;;;;34.83;14.55;;;;;;;0.08;80.46;101201.08;1664555;85;21158;-62
2023/01/26 16:18:09;;;;;;;33.95;14.18;;;;;;;0.08;80.45;101198.38;1648121;87;21244;-62
2023/01/26 16:20:41;;;;;;;36.53;14.68;;;;;;;0.07;80.45;101202.53;1648158;87;21230;-62
2023/01/26 16:23:20;;;;;;;35.40;13.93;;;;;;;0.06;80.34;101196.29;1601877;87;21644;-63
2023/01/26 16:25:51;;;;;;;36.83;14.90;;;;;;;0.03;80.21;101205.08;1629159;87;21168;-63
2023/01/26 16:28:22;;;;;;;39.38;15.25;;;;;;;-0.02;80.28;101199.98;1628881;88;21133;-62
2023/01/26 16:30:52;;;;;;;41.75;14.28;;;;;;;-0.02;80.41;101194.59;1663552;86;21158;-63
2023/01/26 16:33:23;;;;;;;36.48;14.58;;;;;;;-0.02;81.00;101194.59;1640712;86;21118;-62
2023/01/26 16:35:53;;;;;;;31.90;12.98;;;;;;;0.07;81.26;101194.45;1658960;85;21158;-63
2023/01/26 16:38:24;;;;;;;37.03;14.75;;;;;;;0.09;80.96;101192.52;1661666;85;21137;-62
2023/01/26 16:40:53;;;;;;;35.50;14.00;;;;;;;0.05;80.67;101185.14;1670895;86;22110;-63
2023/01/26 16:43:26;;;;;;;36.30;14.33;;;;;;;0.02;80.52;101196.13;1636187;86;21185;-62
2023/01/26 16:45:56;;;;;;;30.40;13.10;;;;;;;-0.01;80.52;101203.06;1670827;85;21282;-62
2023/01/26 16:48:30;;;;;;;33.28;13.58;;;;;;;0.01;80.55;101197.11;1636181;86;21136;-62
2023/01/26 16:50:58;;;;;;;33.70;13.00;;;;;;;0.01;80.44;101191.72;1670839;85;21645;-62
2023/01/26 16:53:30;;;;;;;32.03;13.40;;;;;;;0.01;80.39;101202.49;1670942;86;21640;-62
2023/01/26 16:55:58;;;;;;;30.55;12.43;;;;;;;-0.01;80.63;101202.57;1665689;85;21569;-62
2023/01/26 16:58:30;;;;;;;33.05;13.18;;;;;;;-0.01;80.66;101201.71;1658953;86;21150;-62
2023/01/26 17:01:01;;;;;;;31.57;12.80;;;;;;;0.02;80.69;101197.97;1658941;85;21213;-61
2023/01/26 17:03:30;;;;;;;29.35;12.82;;;;;;;0.02;80.68;101206.05;1658870;85;21157;-62
2023/01/26 17:06:01;;;;;;;36.95;14.47;;;;;;;0.04;81.14;101204.11;1667075;85;21160;-59
2023/01/26 17:08:30;;;;;;;30.15;12.78;;;;;;;0.05;80.97;101209.87;1636560;86;21611;-60
2023/01/26 17:10:59;;;;;;;30.65;12.33;;;;;;;0.03;80.82;101206.42;1629320;87;21192;-60
2023/01/26 17:13:31;;;;;;;31.70;13.68;;;;;;;0.02;80.78;101200.66;1628903;88;21276;-61
2023/01/26 17:16:00;;;;;;;33.45;13.10;;;;;;;0.02;80.79;101200.66;1629125;87;21612;-60
2023/01/26 17:18:32;;;;;;;34.10;14.70;;;;;;;-0.01;80.67;101202.57;1671415;86;21595;-60
2023/01/26 17:21:03;;;;;;;35.40;13.60;;;;;;;0.02;80.74;101199.31;1670982;86;21173;-61
2023/01/26 17:23:37;;;;;;;34.83;13.72;;;;;;;0.04;80.72;101193.33;1657427;85;21124;-60
2023/01/26 17:26:09;;;;;;;36.25;13.45;;;;;;;0.00;80.56;101196.73;1649880;86;21654;-59
2023/01/26 17:28:38;;;;;;;35.88;14.23;;;;;;;-0.02;80.62;101199.98;1649634;87;21413;-58
2023/01/26 17:31:18;;;;;;;30.45;13.03;;;;;;;-0.03;80.68;101200.47;1650047;86;21159;-62
2023/01/26 17:33:48;;;;;;;30.48;13.53;;;;;;;-0.01;80.74;101204.41;1649666;87;21199;-61
2023/01/26 17:36:18;;;;;;;32.70;13.58;;;;;;;-0.01;80.75;101205.75;1626372;87;21205;-60
2023/01/26 17:38:48;;;;;;;29.77;13.28;;;;;;;-0.01;80.82;101199.02;1621803;87;21177;-59
2023/01/26 17:41:17;;;;;;;29.05;12.65;;;;;;;0.01;80.78;101201.14;1645360;87;21180;-61
2023/01/26 17:43:50;;;;;;;30.45;11.93;;;;;;;0.01;80.78;101200.28;1645084;87;21631;-60
2023/01/26 17:46:21;;;;;;;32.35;12.80;;;;;;;-0.02;80.64;101199.50;1645017;87;21140;-61
2023/01/26 17:48:51;;;;;;;34.20;13.60;;;;;;;-0.04;80.72;101196.06;1645203;86;21208;-60
2023/01/26 17:51:30;;;;;;;28.92;11.85;;;;;;;-0.07;80.76;101189.55;1644867;87;21647;-58
2023/01/26 17:54:00;;;;;;;29.20;12.58;;;;;;;-0.10;80.86;101196.98;1645276;87;21185;-59
2023/01/26 17:56:31;;;;;;;33.80;13.20;;;;;;;-0.12;81.00;101200.27;1644945;86;21124;-59
2023/01/26 17:59:00;;;;;;;32.70;13.98;;;;;;;-0.15;81.07;101202.70;1644983;87;23188;-60
2023/01/26 18:01:30;;;;;;;32.00;11.70;;;;;;;-0.15;81.26;101197.80;1645039;87;21195;-60
2023/01/26 18:04:01;;;;;;;35.55;12.82;;;;;;;-0.13;81.36;101199.41;1644936;86;21587;-60
2023/01/26 18:06:31;;;;;;;31.65;12.60;;;;;;;-0.11;81.42;101197.95;1645209;86;21223;-59
2023/01/26 18:09:01;;;;;;;34.90;13.48;;;;;;;-0.09;81.41;101201.40;1645114;87;21188;-61
2023/01/26 18:11:31;;;;;;;27.55;12.23;;;;;;;-0.08;81.43;101192.34;1645150;87;21187;-60
2023/01/26 18:14:02;;;;;;;30.52;13.00;;;;;;;-0.06;81.43;101195.80;1639021;86;21228;-59
2023/01/26 18:16:32;;;;;;;32.58;12.68;;;;;;;-0.06;81.37;101199.83;1645123;87;21163;-58
2023/01/26 18:19:03;;;;;;;32.93;12.07;;;;;;;-0.07;81.33;101198.97;1645160;87;21184;-59
2023/01/26 18:21:34;;;;;;;30.37;12.98;;;;;;;-0.05;81.30;101194.82;1639014;86;21117;-60
2023/01/26 18:24:05;;;;;;;32.60;12.70;;;;;;;-0.09;81.18;101182.55;1637228;86;21613;-60
2023/01/26 18:26:36;;;;;;;31.95;13.18;;;;;;;-0.10;81.19;101193.80;1611525;87;21589;-62
2023/01/26 18:29:07;;;;;;;29.07;12.47;;;;;;;-0.14;81.28;101190.95;1611358;88;21177;-60
2023/01/26 18:31:42;;;;;;;33.90;13.05;;;;;;;-0.13;81.30;101198.55;1631333;87;21911;-59
2023/01/26 18:34:14;;;;;;;21.75;9.35;;;;;;;-0.14;81.38;101203.08;1631351;88;21145;-60
2023/01/26 18:36:45;;;;;;;31.68;13.45;;;;;;;-0.15;81.41;101191.92;1631010;87;21180;-60
2023/01/26 18:39:16;;;;;;;30.40;12.55;;;;;;;-0.14;81.52;101195.48;1631047;86;21208;-60
2023/01/26 18:41:47;;;;;;;29.42;12.60;;;;;;;-0.13;81.50;101193.16;1631017;88;21548;-59
2023/01/26 18:44:17;;;;;;;34.33;13.43;;;;;;;-0.11;81.49;101191.22;1631002;86;21192;-60
2023/01/26 18:46:46;;;;;;;38.88;14.60;;;;;;;-0.11;81.47;101189.39;1631202;88;21441;-61
2023/01/26 18:49:17;;;;;;;31.10;13.10;;;;;;;-0.10;81.38;101189.77;1631014;88;21154;-59
2023/01/26 18:51:47;;;;;;;35.43;13.25;;;;;;;-0.11;81.39;101189.39;1631220;88;21208;-59
2023/01/26 18:54:18;;;;;;;31.35;13.18;;;;;;;-0.12;81.38;101184.11;1631177;88;21606;-60
2023/01/26 18:56:49;;;;;;;29.55;12.82;;;;;;;-0.14;81.35;101181.53;1653996;85;21192;-59
2023/01/26 18:59:18;;;;;;;29.35;13.10;;;;;;;-0.12;81.44;101184.11;1654637;85;21145;-60
2023/01/26 19:01:48;;;;;;;28.05;11.95;;;;;;;-0.12;81.38;101184.97;1631028;86;21645;-60
2023/01/26 19:04:18;;;;;;;30.30;12.43;;;;;;;-0.12;81.42;101180.94;1631163;86;21659;-59
2023/01/26 19:06:47;;;;;;;28.90;12.25;;;;;;;-0.08;81.46;101178.88;1631308;86;21184;-60
2023/01/26 19:09:18;;;;;;;29.10;12.60;;;;;;;-0.07;81.39;101185.98;1631121;88;21165;-59
2023/01/26 19:11:47;;;;;;;31.33;12.25;;;;;;;-0.08;81.33;101181.58;1631474;88;21192;-58
2023/01/26 19:14:16;;;;;;;29.67;12.03;;;;;;;-0.08;81.41;101177.53;1631251;88;21176;-60
2023/01/26 19:16:47;;;;;;;27.35;12.43;;;;;;;-0.08;81.44;101180.23;1631131;86;21148;-59
2023/01/26 19:19:17;;;;;;;28.25;12.88;;;;;;;-0.06;81.42;101183.67;1631006;88;21229;-59
2023/01/26 19:21:46;;;;;;;28.12;12.33;;;;;;;-0.05;81.33;101177.31;1631283;88;21156;-60
2023/01/26 19:24:17;;;;;;;29.27;12.45;;;;;;;-0.04;81.37;101183.08;1631036;86;21729;-59
2023/01/26 19:26:47;;;;;;;32.42;12.55;;;;;;;-0.04;81.31;101179.03;1631344;88;21192;-58
2023/01/26 19:29:18;;;;;;;32.50;12.37;;;;;;;-0.06;81.18;101183.67;1631103;86;21184;-60
2023/01/26 19:31:47;;;;;;;29.35;12.07;;;;;;;-0.08;81.17;101193.20;1631196;88;21212;-60
2023/01/26 19:34:17;;;;;;;30.20;12.75;;;;;;;-0.09;81.19;101185.23;1631190;88;21451;-60
2023/01/26 19:36:48;;;;;;;33.10;12.90;;;;;;;-0.10;81.25;101180.34;1654273;86;21581;-59
2023/01/26 19:39:18;;;;;;;29.30;11.88;;;;;;;-0.08;81.28;101184.27;1631221;88;21140;-59
2023/01/26 19:41:49;;;;;;;30.17;11.40;;;;;;;-0.05;81.23;101171.92;1631104;86;21173;-59
2023/01/26 19:44:19;;;;;;;28.80;12.43;;;;;;;-0.06;81.12;101180.98;1631273;86;21230;-58
2023/01/26 19:46:52;;;;;;;29.95;12.23;;;;;;;-0.06;81.11;101182.33;1631200;86;21144;-59
2023/01/26 19:49:22;;;;;;;28.47;11.97;;;;;;;-0.05;81.06;101185.39;1631279;86;21228;-60
2023/01/26 19:51:52;;;;;;;30.20;12.18;;;;;;;-0.07;81.03;101178.77;1631101;86;21149;-60
2023/01/26 19:54:23;;;;;;;28.98;12.53;;;;;;;-0.08;80.98;101182.92;1631322;86;21153;-61
2023/01/26 19:56:54;;;;;;;27.02;11.28;;;;;;;-0.10;81.09;101166.01;1631083;88;21148;-59
2023/01/26 19:59:26;;;;;;;29.50;12.03;;;;;;;-0.10;81.14;101172.26;1633797;86;21193;-61
2023/01/26 20:01:55;;;;;;;29.55;12.25;;;;;;;-0.08;81.15;101173.49;1673507;85;21187;-59
2023/01/26 20:04:25;;;;;;;29.63;12.88;;;;;;;-0.09;81.14;101167.73;1657606;86;21164;-59
2023/01/26 20:06:56;;;;;;;31.77;13.13;;;;;;;-0.09;81.17;101166.38;1657267;86;21183;-61
2023/01/26 20:09:28;;;;;;;37.73;14.10;;;;;;;-0.09;81.15;101165.03;1683169;85;21213;-59
2023/01/26 20:11:59;;;;;;;33.73;13.18;;;;;;;-0.11;81.10;101158.91;1657142;86;21216;-60
2023/01/26 20:14:30;;;;;;;28.52;12.63;;;;;;;-0.10;81.14;101156.09;1657308;86;21151;-60
2023/01/26 20:16:59;;;;;;;32.95;12.93;;;;;;;-0.09;81.12;101148.87;1657088;86;21169;-59
2023/01/26 20:19:33;;;;;;;30.52;12.88;;;;;;;-0.10;81.03;101149.84;1657124;86;21658;-60
2023/01/26 20:22:08;;;;;;;32.15;12.55;;;;;;;-0.11;81.07;101148.13;1657190;86;21197;-60
2023/01/26 20:24:38;;;;;;;30.27;12.45;;;;;;;-0.10;81.07;101147.16;1660852;86;21179;-58
2023/01/26 20:27:08;;;;;;;33.10;12.47;;;;;;;-0.08;81.06;101149.25;1698076;83;21143;-64
2023/01/26 20:29:38;;;;;;;27.73;12.20;;;;;;;-0.08;80.85;101146.55;1664370;86;21151;-59
2023/01/26 20:32:10;;;;;;;31.97;12.55;;;;;;;-0.09;80.85;101148.39;1664391;86;21179;-60
2023/01/26 20:34:40;;;;;;;28.77;12.30;;;;;;;-0.10;80.81;101145.80;1698120;84;21190;-59
2023/01/26 20:37:10;;;;;;;34.08;13.13;;;;;;;-0.09;80.83;101146.18;1698012;84;21160;-59
2023/01/26 20:39:40;;;;;;;31.45;12.37;;;;;;;-0.09;80.83;101152.91;1698033;83;21162;-59
2023/01/26 20:42:11;;;;;;;29.35;12.85;;;;;;;-0.11;80.67;101150.81;1664277;86;21168;-59
2023/01/26 20:44:41;;;;;;;29.67;12.45;;;;;;;-0.16;80.66;101151.64;1698066;83;21216;-59
2023/01/26 20:47:12;;;;;;;33.25;13.62;;;;;;;-0.17;80.96;101145.87;1664205;86;21175;-60
2023/01/26 20:49:42;;;;;;;30.60;13.35;;;;;;;-0.14;81.02;101154.59;1698125;83;21570;-61
2023/01/26 20:52:12;;;;;;;32.13;13.35;;;;;;;-0.12;81.00;101144.58;1664267;86;21254;-59
2023/01/26 20:54:43;;;;;;;28.30;12.75;;;;;;;-0.12;81.07;101137.84;1664448;86;21214;-60
2023/01/26 20:57:12;;;;;;;31.77;13.55;;;;;;;-0.09;81.03;101143.00;1664323;86;21176;-60
2023/01/26 20:59:42;;;;;;;32.25;12.80;;;;;;;-0.10;80.88;101138.59;1664284;86;21159;-59
2023/01/26 21:02:13;;;;;;;34.18;13.60;;;;;;;-0.12;80.84;101137.84;1664515;86;21135;-58
2023/01/26 21:04:42;;;;;;;30.52;12.43;;;;;;;-0.14;80.80;101144.31;1698270;83;21119;-58
2023/01/26 21:07:12;;;;;;;32.65;13.60;;;;;;;-0.13;80.82;101144.69;1698184;83;21135;-59
2023/01/26 21:09:43;;;;;;;36.53;13.68;;;;;;;-0.15;80.85;101140.75;1698121;83;21558;-58
2023/01/26 21:12:13;;;;;;;35.35;15.55;;;;;;;-0.16;80.97;101142.21;1664384;86;21119;-60
2023/01/26 21:14:42;;;;;;;30.12;13.50;;;;;;;-0.13;81.02;101141.98;1698169;84;21115;-60
2023/01/26 21:17:23;;;;;;;34.70;13.98;;;;;;;-0.12;81.04;101136.48;1698299;83;21183;-58
2023/01/26 21:19:57;;;;;;;30.88;12.78;;;;;;;-0.12;81.05;101136.48;1664466;86;21625;-58
2023/01/26 21:22:27;;;;;;;32.42;13.48;;;;;;;-0.11;81.08;101131.97;1664418;86;21147;-59
2023/01/26 21:24:57;;;;;;;31.77;13.38;;;;;;;-0.13;81.01;101128.03;1664364;86;21151;-60
2023/01/26 21:27:27;;;;;;;34.27;14.15;;;;;;;-0.12;81.04;101124.86;1664460;86;21449;-58
2023/01/26 21:29:57;;;;;;;30.82;13.28;;;;;;;-0.11;81.09;101122.54;1664765;86;21579;-59
2023/01/26 21:32:26;;;;;;;34.40;14.47;;;;;;;-0.10;81.14;101120.22;1698221;84;21170;-59
2023/01/26 21:34:56;;;;;;;33.75;13.38;;;;;;;-0.10;81.16;101118.39;1664289;86;21179;-59
2023/01/26 21:37:27;;;;;;;33.85;13.80;;;;;;;-0.10;81.16;101117.53;1698248;84;21147;-61
2023/01/26 21:39:56;;;;;;;33.42;13.85;;;;;;;-0.09;81.23;101119.25;1670863;84;21170;-60
2023/01/26 21:42:27;;;;;;;33.90;13.95;;;;;;;-0.09;81.33;101120.59;1664353;86;21127;-61
2023/01/26 21:48:26;;;;;;;29.92;12.45;;;;;;;-0.07;81.39;101114.13;1698354;84;21178;-60
2023/01/26 21:52:56;;;;;;;29.72;12.70;;;;;;;-0.07;81.41;101113.27;1697761;83;21218;-59
2023/01/26 21:52:57;;;;;;;29.65;12.43;;;;;;;-0.07;81.48;101110.08;1697573;84;21166;-60